sensor_id;sensor_type;location;lat;lon;timestamp;temperature;humidity
37528;DHT22;23372;52.050;4.810;2022-10-16T00:00:36;13.00;99.90
37528;DHT22;23372;52.050;4.810;2022-10-16T00:03:03;12.90;99.90
37528;DHT22;23372;52.050;4.810;2022-10-16T00:05:29;13.00;99.90
37528;DHT22;23372;52.050;4.810;2022-10-16T00:07:54;13.00;99.90
37528;DHT22;23372;52.050;4.810;2022-10-16T00:10:20;13.00;99.90
37528;DHT22;23372;52.050;4.810;2022-10-16T00:12:45;13.00;99.90
37528;DHT22;23372;52.050;4.810;2022-10-16T00:15:11;13.00;99.90
37528;DHT22;23372;52.050;4.810;2022-10-16T00:17:36;13.00;99.90
37528;DHT22;23372;52.050;4.810;2022-10-16T00:20:02;13.00;99.90
37528;DHT22;23372;52.050;4.810;2022-10-16T00:22:28;13.00;99.90
37528;DHT22;23372;52.050;4.810;2022-10-16T00:24:53;13.10;99.90
37528;DHT22;23372;52.050;4.810;2022-10-16T00:27:19;13.10;99.90
37528;DHT22;23372;52.050;4.810;2022-10-16T00:29:44;13.10;99.90
37528;DHT22;23372;52.050;4.810;2022-10-16T00:32:10;13.10;99.90
37528;DHT22;23372;52.050;4.810;2022-10-16T00:34:35;13.10;99.90
37528;DHT22;23372;52.050;4.810;2022-10-16T00:37:01;13.20;99.90
37528;DHT22;23372;52.050;4.810;2022-10-16T00:39:26;13.20;99.90
37528;DHT22;23372;52.050;4.810;2022-10-16T00:41:52;13.30;99.90
37528;DHT22;23372;52.050;4.810;2022-10-16T00:44:50;13.30;99.90
37528;DHT22;23372;52.050;4.810;2022-10-16T00:47:21;13.30;99.90
37528;DHT22;23372;52.050;4.810;2022-10-16T00:49:50;13.30;99.90
37528;DHT22;23372;52.050;4.810;2022-10-16T00:52:16;13.40;99.90
37528;DHT22;23372;52.050;4.810;2022-10-16T00:54:42;13.40;99.90
37528;DHT22;23372;52.050;4.810;2022-10-16T00:57:08;13.40;99.90
37528;DHT22;23372;52.050;4.810;2022-10-16T00:59:39;13.40;99.90
37528;DHT22;23372;52.050;4.810;2022-10-16T01:02:07;13.40;99.90
37528;DHT22;23372;52.050;4.810;2022-10-16T01:04:37;13.40;99.90
37528;DHT22;23372;52.050;4.810;2022-10-16T01:07:14;13.40;99.90
37528;DHT22;23372;52.050;4.810;2022-10-16T01:12:34;13.40;99.90
37528;DHT22;23372;52.050;4.810;2022-10-16T01:15:26;13.40;99.90
37528;DHT22;23372;52.050;4.810;2022-10-16T01:17:59;13.50;99.90
37528;DHT22;23372;52.050;4.810;2022-10-16T01:20:32;13.50;99.90
37528;DHT22;23372;52.050;4.810;2022-10-16T01:23:18;13.50;99.90
37528;DHT22;23372;52.050;4.810;2022-10-16T01:25:55;13.50;99.90
37528;DHT22;23372;52.050;4.810;2022-10-16T01:28:30;13.60;99.90
37528;DHT22;23372;52.050;4.810;2022-10-16T01:30:58;13.50;99.90
37528;DHT22;23372;52.050;4.810;2022-10-16T01:33:36;13.50;99.90
37528;DHT22;23372;52.050;4.810;2022-10-16T01:36:09;13.40;99.90
37528;DHT22;23372;52.050;4.810;2022-10-16T01:38:38;13.30;99.90
37528;DHT22;23372;52.050;4.810;2022-10-16T01:41:15;13.40;99.90
37528;DHT22;23372;52.050;4.810;2022-10-16T01:43:46;13.40;99.90
37528;DHT22;23372;52.050;4.810;2022-10-16T01:46:17;13.40;99.90
37528;DHT22;23372;52.050;4.810;2022-10-16T01:48:44;13.30;99.90
37528;DHT22;23372;52.050;4.810;2022-10-16T01:51:12;13.30;99.90
37528;DHT22;23372;52.050;4.810;2022-10-16T01:53:39;13.30;99.90
37528;DHT22;23372;52.050;4.810;2022-10-16T01:56:08;13.30;99.90
37528;DHT22;23372;52.050;4.810;2022-10-16T01:58:40;13.30;99.90
37528;DHT22;23372;52.050;4.810;2022-10-16T02:01:08;13.20;99.90
37528;DHT22;23372;52.050;4.810;2022-10-16T02:03:38;13.20;99.90
37528;DHT22;23372;52.050;4.810;2022-10-16T02:06:06;13.10;99.90
37528;DHT22;23372;52.050;4.810;2022-10-16T02:08:33;13.10;99.90
37528;DHT22;23372;52.050;4.810;2022-10-16T02:11:00;13.00;99.90
37528;DHT22;23372;52.050;4.810;2022-10-16T02:16:37;13.00;99.90
37528;DHT22;23372;52.050;4.810;2022-10-16T02:19:04;12.90;99.90
37528;DHT22;23372;52.050;4.810;2022-10-16T02:21:41;13.00;99.90
37528;DHT22;23372;52.050;4.810;2022-10-16T02:24:13;13.00;99.90
37528;DHT22;23372;52.050;4.810;2022-10-16T02:29:16;12.90;99.90
37528;DHT22;23372;52.050;4.810;2022-10-16T02:31:46;12.90;99.90
37528;DHT22;23372;52.050;4.810;2022-10-16T02:34:13;13.00;99.90
37528;DHT22;23372;52.050;4.810;2022-10-16T02:36:40;12.90;99.90
37528;DHT22;23372;52.050;4.810;2022-10-16T02:39:07;13.00;99.90
37528;DHT22;23372;52.050;4.810;2022-10-16T02:41:33;13.00;99.90
37528;DHT22;23372;52.050;4.810;2022-10-16T02:43:59;13.00;99.90
37528;DHT22;23372;52.050;4.810;2022-10-16T02:46:24;12.90;99.90
37528;DHT22;23372;52.050;4.810;2022-10-16T02:48:50;13.00;99.90
37528;DHT22;23372;52.050;4.810;2022-10-16T02:51:15;12.90;99.90
37528;DHT22;23372;52.050;4.810;2022-10-16T02:53:41;12.90;99.90
37528;DHT22;23372;52.050;4.810;2022-10-16T02:56:06;13.00;99.90
37528;DHT22;23372;52.050;4.810;2022-10-16T02:58:32;12.90;99.90
37528;DHT22;23372;52.050;4.810;2022-10-16T03:00:57;12.90;99.90
37528;DHT22;23372;52.050;4.810;2022-10-16T03:03:23;12.90;99.90
37528;DHT22;23372;52.050;4.810;2022-10-16T03:05:48;12.80;99.90
37528;DHT22;23372;52.050;4.810;2022-10-16T03:08:14;12.70;99.90
37528;DHT22;23372;52.050;4.810;2022-10-16T03:10:40;12.70;99.90
37528;DHT22;23372;52.050;4.810;2022-10-16T03:13:05;12.70;99.90
37528;DHT22;23372;52.050;4.810;2022-10-16T03:15:30;12.60;99.90
37528;DHT22;23372;52.050;4.810;2022-10-16T03:17:59;12.70;99.90
37528;DHT22;23372;52.050;4.810;2022-10-16T03:20:25;12.60;99.90
37528;DHT22;23372;52.050;4.810;2022-10-16T03:22:51;12.60;99.90
37528;DHT22;23372;52.050;4.810;2022-10-16T03:25:17;12.60;99.90
37528;DHT22;23372;52.050;4.810;2022-10-16T03:27:43;12.70;99.90
37528;DHT22;23372;52.050;4.810;2022-10-16T03:30:09;12.70;99.90
37528;DHT22;23372;52.050;4.810;2022-10-16T03:32:34;12.70;99.90
37528;DHT22;23372;52.050;4.810;2022-10-16T03:35:00;12.70;99.90
37528;DHT22;23372;52.050;4.810;2022-10-16T03:37:25;12.70;99.90
37528;DHT22;23372;52.050;4.810;2022-10-16T03:39:51;12.80;99.90
37528;DHT22;23372;52.050;4.810;2022-10-16T03:42:17;12.90;99.90
37528;DHT22;23372;52.050;4.810;2022-10-16T03:44:42;12.80;99.90
37528;DHT22;23372;52.050;4.810;2022-10-16T03:47:08;12.80;99.90
37528;DHT22;23372;52.050;4.810;2022-10-16T03:49:33;12.80;99.90
37528;DHT22;23372;52.050;4.810;2022-10-16T03:51:59;12.80;99.90
37528;DHT22;23372;52.050;4.810;2022-10-16T03:54:24;12.80;99.90
37528;DHT22;23372;52.050;4.810;2022-10-16T03:56:50;12.80;99.90
37528;DHT22;23372;52.050;4.810;2022-10-16T03:59:15;12.80;99.90
37528;DHT22;23372;52.050;4.810;2022-10-16T04:01:41;12.90;99.90
37528;DHT22;23372;52.050;4.810;2022-10-16T04:04:06;13.00;99.90
37528;DHT22;23372;52.050;4.810;2022-10-16T04:06:32;12.90;99.90
37528;DHT22;23372;52.050;4.810;2022-10-16T04:08:57;12.90;99.90
37528;DHT22;23372;52.050;4.810;2022-10-16T04:11:23;12.90;99.90
37528;DHT22;23372;52.050;4.810;2022-10-16T04:13:48;12.90;99.90
37528;DHT22;23372;52.050;4.810;2022-10-16T04:16:14;12.90;99.90
37528;DHT22;23372;52.050;4.810;2022-10-16T04:18:39;12.80;99.90
37528;DHT22;23372;52.050;4.810;2022-10-16T04:21:06;12.80;99.90
37528;DHT22;23372;52.050;4.810;2022-10-16T04:23:32;12.80;99.90
37528;DHT22;23372;52.050;4.810;2022-10-16T04:25:58;12.80;99.90
37528;DHT22;23372;52.050;4.810;2022-10-16T04:28:24;12.80;99.90
37528;DHT22;23372;52.050;4.810;2022-10-16T04:30:50;12.80;99.90
37528;DHT22;23372;52.050;4.810;2022-10-16T04:33:15;12.70;99.90
37528;DHT22;23372;52.050;4.810;2022-10-16T04:35:41;12.80;99.90
37528;DHT22;23372;52.050;4.810;2022-10-16T04:38:06;12.80;99.90
37528;DHT22;23372;52.050;4.810;2022-10-16T04:40:32;12.70;99.90
37528;DHT22;23372;52.050;4.810;2022-10-16T04:42:58;12.70;99.90
37528;DHT22;23372;52.050;4.810;2022-10-16T04:45:24;12.80;99.90
37528;DHT22;23372;52.050;4.810;2022-10-16T04:47:50;12.80;99.90
37528;DHT22;23372;52.050;4.810;2022-10-16T04:50:15;12.90;99.90
37528;DHT22;23372;52.050;4.810;2022-10-16T04:52:41;12.90;99.90
37528;DHT22;23372;52.050;4.810;2022-10-16T04:55:07;12.80;99.90
37528;DHT22;23372;52.050;4.810;2022-10-16T04:57:33;12.80;99.90
37528;DHT22;23372;52.050;4.810;2022-10-16T04:59:59;12.80;99.90
37528;DHT22;23372;52.050;4.810;2022-10-16T05:02:25;12.80;99.90
37528;DHT22;23372;52.050;4.810;2022-10-16T05:04:51;12.80;99.90
37528;DHT22;23372;52.050;4.810;2022-10-16T05:07:17;12.80;99.90
37528;DHT22;23372;52.050;4.810;2022-10-16T05:09:42;12.90;99.90
37528;DHT22;23372;52.050;4.810;2022-10-16T05:12:08;12.90;99.90
37528;DHT22;23372;52.050;4.810;2022-10-16T05:14:33;12.90;99.90
37528;DHT22;23372;52.050;4.810;2022-10-16T05:16:59;12.90;99.90
37528;DHT22;23372;52.050;4.810;2022-10-16T05:19:25;12.90;99.90
37528;DHT22;23372;52.050;4.810;2022-10-16T05:21:50;12.90;99.90
37528;DHT22;23372;52.050;4.810;2022-10-16T05:24:16;12.90;99.90
37528;DHT22;23372;52.050;4.810;2022-10-16T05:26:41;13.00;99.90
37528;DHT22;23372;52.050;4.810;2022-10-16T05:29:07;12.90;99.90
37528;DHT22;23372;52.050;4.810;2022-10-16T05:31:32;13.00;99.90
37528;DHT22;23372;52.050;4.810;2022-10-16T05:34:02;13.00;99.90
37528;DHT22;23372;52.050;4.810;2022-10-16T05:36:28;13.00;99.90
37528;DHT22;23372;52.050;4.810;2022-10-16T05:38:53;13.00;99.90
37528;DHT22;23372;52.050;4.810;2022-10-16T05:41:19;13.00;99.90
37528;DHT22;23372;52.050;4.810;2022-10-16T05:43:47;13.00;99.90
37528;DHT22;23372;52.050;4.810;2022-10-16T05:46:12;13.10;99.90
37528;DHT22;23372;52.050;4.810;2022-10-16T05:48:38;13.00;99.90
37528;DHT22;23372;52.050;4.810;2022-10-16T05:51:05;13.00;99.90
37528;DHT22;23372;52.050;4.810;2022-10-16T05:53:35;13.00;99.90
37528;DHT22;23372;52.050;4.810;2022-10-16T05:56:02;13.00;99.90
37528;DHT22;23372;52.050;4.810;2022-10-16T05:58:36;13.00;99.90
37528;DHT22;23372;52.050;4.810;2022-10-16T06:01:10;13.10;99.90
37528;DHT22;23372;52.050;4.810;2022-10-16T06:03:36;13.10;99.90
37528;DHT22;23372;52.050;4.810;2022-10-16T06:06:13;13.10;99.90
37528;DHT22;23372;52.050;4.810;2022-10-16T06:08:40;13.00;99.90
37528;DHT22;23372;52.050;4.810;2022-10-16T06:11:08;13.00;99.90
37528;DHT22;23372;52.050;4.810;2022-10-16T06:13:34;13.10;99.90
37528;DHT22;23372;52.050;4.810;2022-10-16T06:16:00;13.00;99.90
37528;DHT22;23372;52.050;4.810;2022-10-16T06:18:27;13.00;99.90
37528;DHT22;23372;52.050;4.810;2022-10-16T06:20:54;13.00;99.90
37528;DHT22;23372;52.050;4.810;2022-10-16T06:23:19;13.10;99.90
37528;DHT22;23372;52.050;4.810;2022-10-16T06:25:45;13.00;99.90
37528;DHT22;23372;52.050;4.810;2022-10-16T06:28:10;13.00;99.90
37528;DHT22;23372;52.050;4.810;2022-10-16T06:30:36;13.00;99.90
37528;DHT22;23372;52.050;4.810;2022-10-16T06:33:01;13.00;99.90
37528;DHT22;23372;52.050;4.810;2022-10-16T06:35:27;13.00;99.90
37528;DHT22;23372;52.050;4.810;2022-10-16T06:37:54;13.10;99.90
37528;DHT22;23372;52.050;4.810;2022-10-16T06:40:20;13.00;99.90
37528;DHT22;23372;52.050;4.810;2022-10-16T06:42:45;13.00;99.90
37528;DHT22;23372;52.050;4.810;2022-10-16T06:45:11;13.00;99.90
37528;DHT22;23372;52.050;4.810;2022-10-16T06:47:36;12.90;99.90
37528;DHT22;23372;52.050;4.810;2022-10-16T06:50:03;13.00;99.90
37528;DHT22;23372;52.050;4.810;2022-10-16T06:52:29;12.90;99.90
37528;DHT22;23372;52.050;4.810;2022-10-16T06:54:54;13.00;99.90
37528;DHT22;23372;52.050;4.810;2022-10-16T06:57:20;13.00;99.90
37528;DHT22;23372;52.050;4.810;2022-10-16T06:59:45;13.10;99.90
37528;DHT22;23372;52.050;4.810;2022-10-16T07:02:10;13.10;99.90
37528;DHT22;23372;52.050;4.810;2022-10-16T07:04:36;13.10;99.90
37528;DHT22;23372;52.050;4.810;2022-10-16T07:07:02;13.10;99.90
37528;DHT22;23372;52.050;4.810;2022-10-16T07:09:28;13.20;99.90
37528;DHT22;23372;52.050;4.810;2022-10-16T07:11:53;13.20;99.90
37528;DHT22;23372;52.050;4.810;2022-10-16T07:14:20;13.30;99.90
37528;DHT22;23372;52.050;4.810;2022-10-16T07:16:47;13.30;99.90
37528;DHT22;23372;52.050;4.810;2022-10-16T07:19:13;13.40;99.90
37528;DHT22;23372;52.050;4.810;2022-10-16T07:21:39;13.30;99.90
37528;DHT22;23372;52.050;4.810;2022-10-16T07:24:09;13.40;99.90
37528;DHT22;23372;52.050;4.810;2022-10-16T07:26:37;13.40;99.90
37528;DHT22;23372;52.050;4.810;2022-10-16T07:29:05;13.20;99.90
37528;DHT22;23372;52.050;4.810;2022-10-16T07:31:31;13.30;99.90
37528;DHT22;23372;52.050;4.810;2022-10-16T07:33:58;13.20;99.90
37528;DHT22;23372;52.050;4.810;2022-10-16T07:36:24;13.30;99.90
37528;DHT22;23372;52.050;4.810;2022-10-16T07:38:49;13.30;99.90
37528;DHT22;23372;52.050;4.810;2022-10-16T07:41:18;13.30;99.90
37528;DHT22;23372;52.050;4.810;2022-10-16T07:43:47;13.30;99.90
37528;DHT22;23372;52.050;4.810;2022-10-16T07:46:13;13.30;99.90
37528;DHT22;23372;52.050;4.810;2022-10-16T07:48:39;13.50;99.90
37528;DHT22;23372;52.050;4.810;2022-10-16T07:51:06;13.50;99.90
37528;DHT22;23372;52.050;4.810;2022-10-16T07:53:32;13.40;99.90
37528;DHT22;23372;52.050;4.810;2022-10-16T07:56:00;13.50;99.90
37528;DHT22;23372;52.050;4.810;2022-10-16T07:58:27;13.70;99.90
37528;DHT22;23372;52.050;4.810;2022-10-16T08:00:53;13.90;99.90
37528;DHT22;23372;52.050;4.810;2022-10-16T08:03:19;14.00;99.90
37528;DHT22;23372;52.050;4.810;2022-10-16T08:05:44;14.20;99.90
37528;DHT22;23372;52.050;4.810;2022-10-16T08:08:14;14.10;99.90
37528;DHT22;23372;52.050;4.810;2022-10-16T08:10:39;14.40;99.90
37528;DHT22;23372;52.050;4.810;2022-10-16T08:13:05;14.70;99.90
37528;DHT22;23372;52.050;4.810;2022-10-16T08:15:30;14.50;99.90
37528;DHT22;23372;52.050;4.810;2022-10-16T08:18:03;14.50;99.90
37528;DHT22;23372;52.050;4.810;2022-10-16T08:20:30;14.40;99.90
37528;DHT22;23372;52.050;4.810;2022-10-16T08:22:56;14.30;99.90
37528;DHT22;23372;52.050;4.810;2022-10-16T08:25:23;14.40;99.90
37528;DHT22;23372;52.050;4.810;2022-10-16T08:27:48;14.30;99.90
37528;DHT22;23372;52.050;4.810;2022-10-16T08:30:14;14.40;99.90
37528;DHT22;23372;52.050;4.810;2022-10-16T08:32:40;14.50;99.90
37528;DHT22;23372;52.050;4.810;2022-10-16T08:35:11;14.50;99.90
37528;DHT22;23372;52.050;4.810;2022-10-16T08:37:37;14.40;99.90
37528;DHT22;23372;52.050;4.810;2022-10-16T08:40:05;14.60;99.90
37528;DHT22;23372;52.050;4.810;2022-10-16T08:48:43;14.80;99.90
37528;DHT22;23372;52.050;4.810;2022-10-16T08:51:19;14.90;99.90
37528;DHT22;23372;52.050;4.810;2022-10-16T08:56:30;15.20;99.90
37528;DHT22;23372;52.050;4.810;2022-10-16T08:58:58;15.30;99.90
37528;DHT22;23372;52.050;4.810;2022-10-16T09:01:31;15.20;99.90
37528;DHT22;23372;52.050;4.810;2022-10-16T09:06:54;15.20;99.90
37528;DHT22;23372;52.050;4.810;2022-10-16T09:17:41;16.10;99.90
37528;DHT22;23372;52.050;4.810;2022-10-16T09:20:34;16.70;99.90
37528;DHT22;23372;52.050;4.810;2022-10-16T09:25:30;17.00;99.90
37528;DHT22;23372;52.050;4.810;2022-10-16T09:27:57;17.90;99.90
37528;DHT22;23372;52.050;4.810;2022-10-16T09:30:22;18.10;99.90
37528;DHT22;23372;52.050;4.810;2022-10-16T09:32:52;18.10;99.90
37528;DHT22;23372;52.050;4.810;2022-10-16T09:35:43;19.10;99.90
37528;DHT22;23372;52.050;4.810;2022-10-16T09:38:09;19.50;99.90
37528;DHT22;23372;52.050;4.810;2022-10-16T09:40:45;20.60;99.90
37528;DHT22;23372;52.050;4.810;2022-10-16T09:46:07;19.80;99.90
37528;DHT22;23372;52.050;4.810;2022-10-16T09:48:49;19.70;99.90
37528;DHT22;23372;52.050;4.810;2022-10-16T09:54:00;20.90;99.90
37528;DHT22;23372;52.050;4.810;2022-10-16T09:56:33;23.10;99.90
37528;DHT22;23372;52.050;4.810;2022-10-16T09:59:03;24.40;99.90
37528;DHT22;23372;52.050;4.810;2022-10-16T10:01:39;26.30;99.90
37528;DHT22;23372;52.050;4.810;2022-10-16T10:04:07;27.40;99.90
37528;DHT22;23372;52.050;4.810;2022-10-16T10:06:53;27.00;99.90
37528;DHT22;23372;52.050;4.810;2022-10-16T10:09:28;26.10;99.90
37528;DHT22;23372;52.050;4.810;2022-10-16T10:12:01;24.80;99.90
37528;DHT22;23372;52.050;4.810;2022-10-16T10:14:48;24.00;99.90
37528;DHT22;23372;52.050;4.810;2022-10-16T10:17:25;22.50;99.90
37528;DHT22;23372;52.050;4.810;2022-10-16T10:19:59;22.60;99.90
37528;DHT22;23372;52.050;4.810;2022-10-16T10:22:42;22.90;99.90
37528;DHT22;23372;52.050;4.810;2022-10-16T10:30:22;25.90;99.90
37528;DHT22;23372;52.050;4.810;2022-10-16T10:38:26;28.20;99.90
37528;DHT22;23372;52.050;4.810;2022-10-16T10:41:05;28.30;99.90
37528;DHT22;23372;52.050;4.810;2022-10-16T10:43:56;27.60;99.90
37528;DHT22;23372;52.050;4.810;2022-10-16T10:46:34;25.60;99.90
37528;DHT22;23372;52.050;4.810;2022-10-16T10:51:51;23.00;99.90
37528;DHT22;23372;52.050;4.810;2022-10-16T10:54:50;21.20;99.90
37528;DHT22;23372;52.050;4.810;2022-10-16T11:08:04;17.00;99.90
37528;DHT22;23372;52.050;4.810;2022-10-16T11:13:36;16.80;99.90
37528;DHT22;23372;52.050;4.810;2022-10-16T11:16:20;16.70;99.90
37528;DHT22;23372;52.050;4.810;2022-10-16T11:21:56;16.30;99.90
37528;DHT22;23372;52.050;4.810;2022-10-16T11:27:50;16.50;99.90
37528;DHT22;23372;52.050;4.810;2022-10-16T11:30:22;17.00;99.90
37528;DHT22;23372;52.050;4.810;2022-10-16T11:33:09;17.30;99.90
37528;DHT22;23372;52.050;4.810;2022-10-16T11:38:30;17.70;99.90
37528;DHT22;23372;52.050;4.810;2022-10-16T11:41:02;17.90;99.90
37528;DHT22;23372;52.050;4.810;2022-10-16T11:43:34;18.00;99.90
37528;DHT22;23372;52.050;4.810;2022-10-16T11:46:08;18.10;99.90
37528;DHT22;23372;52.050;4.810;2022-10-16T11:48:41;18.10;99.90
37528;DHT22;23372;52.050;4.810;2022-10-16T11:51:16;18.20;99.90
37528;DHT22;23372;52.050;4.810;2022-10-16T11:54:14;18.30;99.90
37528;DHT22;23372;52.050;4.810;2022-10-16T11:56:44;18.30;99.90
37528;DHT22;23372;52.050;4.810;2022-10-16T11:59:30;18.40;99.90
37528;DHT22;23372;52.050;4.810;2022-10-16T12:01:59;18.40;99.90
37528;DHT22;23372;52.050;4.810;2022-10-16T12:05:49;18.50;99.90
37528;DHT22;23372;52.050;4.810;2022-10-16T12:08:06;18.60;99.90
37528;DHT22;23372;52.050;4.810;2022-10-16T12:10:34;18.30;99.90
37528;DHT22;23372;52.050;4.810;2022-10-16T12:15:47;18.10;99.90
37528;DHT22;23372;52.050;4.810;2022-10-16T12:18:23;17.90;99.90
37528;DHT22;23372;52.050;4.810;2022-10-16T12:20:56;18.00;99.90
37528;DHT22;23372;52.050;4.810;2022-10-16T12:23:24;17.90;99.90
37528;DHT22;23372;52.050;4.810;2022-10-16T12:25:58;17.90;99.90
37528;DHT22;23372;52.050;4.810;2022-10-16T12:28:29;17.70;99.90
37528;DHT22;23372;52.050;4.810;2022-10-16T12:31:03;17.80;99.90
37528;DHT22;23372;52.050;4.810;2022-10-16T12:33:33;17.80;99.90
37528;DHT22;23372;52.050;4.810;2022-10-16T12:36:01;17.80;99.90
37528;DHT22;23372;52.050;4.810;2022-10-16T12:38:45;17.50;99.90
37528;DHT22;23372;52.050;4.810;2022-10-16T12:41:11;17.40;99.90
37528;DHT22;23372;52.050;4.810;2022-10-16T12:43:45;17.30;99.90
37528;DHT22;23372;52.050;4.810;2022-10-16T12:48:41;17.30;99.90
37528;DHT22;23372;52.050;4.810;2022-10-16T12:51:23;17.20;99.90
37528;DHT22;23372;52.050;4.810;2022-10-16T12:54:13;17.30;99.90
37528;DHT22;23372;52.050;4.810;2022-10-16T12:59:31;17.30;99.90
37528;DHT22;23372;52.050;4.810;2022-10-16T13:10:08;17.30;99.90
37528;DHT22;23372;52.050;4.810;2022-10-16T13:15:35;17.30;99.90
37528;DHT22;23372;52.050;4.810;2022-10-16T13:18:40;17.30;99.90
37528;DHT22;23372;52.050;4.810;2022-10-16T13:24:17;17.20;99.90
37528;DHT22;23372;52.050;4.810;2022-10-16T13:27:04;17.20;99.90
37528;DHT22;23372;52.050;4.810;2022-10-16T13:29:32;17.30;99.90
37528;DHT22;23372;52.050;4.810;2022-10-16T13:32:01;17.20;99.90
37528;DHT22;23372;52.050;4.810;2022-10-16T13:34:27;17.40;99.90
37528;DHT22;23372;52.050;4.810;2022-10-16T13:36:53;17.30;99.90
37528;DHT22;23372;52.050;4.810;2022-10-16T13:39:28;17.30;99.90
37528;DHT22;23372;52.050;4.810;2022-10-16T13:42:10;17.40;99.90
37528;DHT22;23372;52.050;4.810;2022-10-16T13:44:49;17.40;99.90
37528;DHT22;23372;52.050;4.810;2022-10-16T13:47:17;17.40;99.90
37528;DHT22;23372;52.050;4.810;2022-10-16T13:49:43;17.40;99.90
37528;DHT22;23372;52.050;4.810;2022-10-16T13:52:21;17.30;99.90
37528;DHT22;23372;52.050;4.810;2022-10-16T13:54:47;17.30;99.90
37528;DHT22;23372;52.050;4.810;2022-10-16T13:57:14;17.30;99.90
37528;DHT22;23372;52.050;4.810;2022-10-16T13:59:40;17.20;99.90
37528;DHT22;23372;52.050;4.810;2022-10-16T14:02:27;17.20;99.90
37528;DHT22;23372;52.050;4.810;2022-10-16T14:04:55;17.20;99.90
37528;DHT22;23372;52.050;4.810;2022-10-16T14:07:25;17.20;99.90
37528;DHT22;23372;52.050;4.810;2022-10-16T14:09:52;17.20;99.90
37528;DHT22;23372;52.050;4.810;2022-10-16T14:12:18;17.20;99.90
37528;DHT22;23372;52.050;4.810;2022-10-16T14:14:46;17.20;99.90
37528;DHT22;23372;52.050;4.810;2022-10-16T14:17:18;17.10;99.90
37528;DHT22;23372;52.050;4.810;2022-10-16T14:19:49;17.20;99.90
37528;DHT22;23372;52.050;4.810;2022-10-16T14:22:31;17.20;99.90
37528;DHT22;23372;52.050;4.810;2022-10-16T14:24:58;17.00;99.90
37528;DHT22;23372;52.050;4.810;2022-10-16T14:27:33;17.00;99.90
37528;DHT22;23372;52.050;4.810;2022-10-16T14:32:36;17.00;99.90
37528;DHT22;23372;52.050;4.810;2022-10-16T14:35:02;17.00;99.90
37528;DHT22;23372;52.050;4.810;2022-10-16T14:37:29;16.90;99.90
37528;DHT22;23372;52.050;4.810;2022-10-16T14:39:55;17.00;99.90
37528;DHT22;23372;52.050;4.810;2022-10-16T14:42:23;17.00;99.90
37528;DHT22;23372;52.050;4.810;2022-10-16T14:44:51;16.90;99.90
37528;DHT22;23372;52.050;4.810;2022-10-16T14:47:20;16.90;99.90
37528;DHT22;23372;52.050;4.810;2022-10-16T14:49:50;16.90;99.90
37528;DHT22;23372;52.050;4.810;2022-10-16T14:52:16;16.90;99.90
37528;DHT22;23372;52.050;4.810;2022-10-16T14:54:41;16.90;99.90
37528;DHT22;23372;52.050;4.810;2022-10-16T14:57:17;16.70;99.90
37528;DHT22;23372;52.050;4.810;2022-10-16T14:59:44;16.80;99.90
37528;DHT22;23372;52.050;4.810;2022-10-16T15:02:18;16.80;99.90
37528;DHT22;23372;52.050;4.810;2022-10-16T15:04:45;16.80;99.90
37528;DHT22;23372;52.050;4.810;2022-10-16T15:07:11;16.80;99.90
37528;DHT22;23372;52.050;4.810;2022-10-16T15:09:36;16.80;99.90
37528;DHT22;23372;52.050;4.810;2022-10-16T15:12:02;16.70;99.90
37528;DHT22;23372;52.050;4.810;2022-10-16T15:14:28;16.70;99.90
37528;DHT22;23372;52.050;4.810;2022-10-16T15:16:53;16.60;99.90
37528;DHT22;23372;52.050;4.810;2022-10-16T15:19:19;16.60;99.90
37528;DHT22;23372;52.050;4.810;2022-10-16T15:21:44;16.50;99.90
37528;DHT22;23372;52.050;4.810;2022-10-16T15:24:12;16.40;99.90
37528;DHT22;23372;52.050;4.810;2022-10-16T15:26:38;16.40;99.90
37528;DHT22;23372;52.050;4.810;2022-10-16T15:29:04;16.30;99.90
37528;DHT22;23372;52.050;4.810;2022-10-16T15:31:30;16.30;99.90
37528;DHT22;23372;52.050;4.810;2022-10-16T15:33:55;16.30;99.90
37528;DHT22;23372;52.050;4.810;2022-10-16T15:36:31;16.20;99.90
37528;DHT22;23372;52.050;4.810;2022-10-16T15:38:59;16.20;99.90
37528;DHT22;23372;52.050;4.810;2022-10-16T15:41:25;16.20;99.90
37528;DHT22;23372;52.050;4.810;2022-10-16T15:43:51;16.10;99.90
37528;DHT22;23372;52.050;4.810;2022-10-16T15:46:19;16.00;99.90
37528;DHT22;23372;52.050;4.810;2022-10-16T15:48:46;16.00;99.90
37528;DHT22;23372;52.050;4.810;2022-10-16T15:51:12;15.80;99.90
37528;DHT22;23372;52.050;4.810;2022-10-16T15:53:38;15.80;99.90
37528;DHT22;23372;52.050;4.810;2022-10-16T15:56:04;15.80;99.90
37528;DHT22;23372;52.050;4.810;2022-10-16T15:58:30;15.70;99.90
37528;DHT22;23372;52.050;4.810;2022-10-16T16:00:57;15.70;99.90
37528;DHT22;23372;52.050;4.810;2022-10-16T16:03:23;15.60;99.90
37528;DHT22;23372;52.050;4.810;2022-10-16T16:05:49;15.60;99.90
37528;DHT22;23372;52.050;4.810;2022-10-16T16:08:14;15.60;99.90
37528;DHT22;23372;52.050;4.810;2022-10-16T16:10:40;15.50;99.90
37528;DHT22;23372;52.050;4.810;2022-10-16T16:13:06;15.50;99.90
37528;DHT22;23372;52.050;4.810;2022-10-16T16:15:31;15.40;99.90
37528;DHT22;23372;52.050;4.810;2022-10-16T16:17:57;15.40;99.90
37528;DHT22;23372;52.050;4.810;2022-10-16T16:20:22;15.30;99.90
37528;DHT22;23372;52.050;4.810;2022-10-16T16:22:48;15.20;99.90
37528;DHT22;23372;52.050;4.810;2022-10-16T16:25:13;15.20;99.90
37528;DHT22;23372;52.050;4.810;2022-10-16T16:27:39;15.10;99.90
37528;DHT22;23372;52.050;4.810;2022-10-16T16:30:10;15.10;99.90
37528;DHT22;23372;52.050;4.810;2022-10-16T16:32:36;15.00;99.90
37528;DHT22;23372;52.050;4.810;2022-10-16T16:35:03;15.00;99.90
37528;DHT22;23372;52.050;4.810;2022-10-16T16:37:29;14.90;99.90
37528;DHT22;23372;52.050;4.810;2022-10-16T16:39:54;14.80;99.90
37528;DHT22;23372;52.050;4.810;2022-10-16T16:42:24;14.70;99.90
37528;DHT22;23372;52.050;4.810;2022-10-16T16:44:49;14.70;99.90
37528;DHT22;23372;52.050;4.810;2022-10-16T16:47:15;14.60;99.90
37528;DHT22;23372;52.050;4.810;2022-10-16T16:49:41;14.60;99.90
37528;DHT22;23372;52.050;4.810;2022-10-16T16:52:06;14.60;99.90
37528;DHT22;23372;52.050;4.810;2022-10-16T16:54:32;14.60;99.90
37528;DHT22;23372;52.050;4.810;2022-10-16T16:56:57;14.60;99.90
37528;DHT22;23372;52.050;4.810;2022-10-16T16:59:23;14.50;99.90
37528;DHT22;23372;52.050;4.810;2022-10-16T17:01:49;14.50;99.90
37528;DHT22;23372;52.050;4.810;2022-10-16T17:04:15;14.50;99.90
37528;DHT22;23372;52.050;4.810;2022-10-16T17:06:40;14.50;99.90
37528;DHT22;23372;52.050;4.810;2022-10-16T17:09:06;14.50;99.90
37528;DHT22;23372;52.050;4.810;2022-10-16T17:11:32;14.60;99.90
37528;DHT22;23372;52.050;4.810;2022-10-16T17:13:59;14.60;99.90
37528;DHT22;23372;52.050;4.810;2022-10-16T17:16:34;14.60;99.90
37528;DHT22;23372;52.050;4.810;2022-10-16T17:19:02;14.60;99.90